sensor_id;sensor_type;location;lat;lon;timestamp;temperature;humidity
27534;DHT22;14973;51.460;7.008;2023-09-30T00:00:00;13.40;99.90
27534;DHT22;14973;51.460;7.008;2023-09-30T00:02:26;13.50;99.90
27534;DHT22;14973;51.460;7.008;2023-09-30T00:04:52;13.50;99.90
27534;DHT22;14973;51.460;7.008;2023-09-30T00:07:17;13.50;99.90
27534;DHT22;14973;51.460;7.008;2023-09-30T00:09:43;13.50;99.90
27534;DHT22;14973;51.460;7.008;2023-09-30T00:12:09;13.50;99.90
27534;DHT22;14973;51.460;7.008;2023-09-30T00:14:34;13.40;99.90
27534;DHT22;14973;51.460;7.008;2023-09-30T00:17:01;13.40;99.90
27534;DHT22;14973;51.460;7.008;2023-09-30T00:19:27;13.30;99.90
27534;DHT22;14973;51.460;7.008;2023-09-30T00:21:52;13.30;99.90
27534;DHT22;14973;51.460;7.008;2023-09-30T00:24:18;13.30;99.90
27534;DHT22;14973;51.460;7.008;2023-09-30T00:26:43;13.30;99.90
27534;DHT22;14973;51.460;7.008;2023-09-30T00:29:09;13.30;99.90
27534;DHT22;14973;51.460;7.008;2023-09-30T00:31:35;13.30;99.90
27534;DHT22;14973;51.460;7.008;2023-09-30T00:34:01;13.30;99.90
27534;DHT22;14973;51.460;7.008;2023-09-30T00:36:26;13.30;99.90
27534;DHT22;14973;51.460;7.008;2023-09-30T00:38:52;13.30;99.90
27534;DHT22;14973;51.460;7.008;2023-09-30T00:41:18;13.30;99.90
27534;DHT22;14973;51.460;7.008;2023-09-30T00:43:46;13.40;99.90
27534;DHT22;14973;51.460;7.008;2023-09-30T00:46:25;13.40;99.90
27534;DHT22;14973;51.460;7.008;2023-09-30T00:48:53;13.40;99.90
27534;DHT22;14973;51.460;7.008;2023-09-30T00:51:19;13.40;99.90
27534;DHT22;14973;51.460;7.008;2023-09-30T00:53:44;13.40;99.90
27534;DHT22;14973;51.460;7.008;2023-09-30T00:56:10;13.40;99.90
27534;DHT22;14973;51.460;7.008;2023-09-30T00:58:38;13.50;99.90
27534;DHT22;14973;51.460;7.008;2023-09-30T01:01:04;13.50;99.90
27534;DHT22;14973;51.460;7.008;2023-09-30T01:03:30;13.50;99.90
27534;DHT22;14973;51.460;7.008;2023-09-30T01:05:56;13.50;99.90
27534;DHT22;14973;51.460;7.008;2023-09-30T01:08:21;13.40;99.90
27534;DHT22;14973;51.460;7.008;2023-09-30T01:10:48;13.40;99.90
27534;DHT22;14973;51.460;7.008;2023-09-30T01:13:13;13.40;99.90
27534;DHT22;14973;51.460;7.008;2023-09-30T01:15:39;13.40;99.90
27534;DHT22;14973;51.460;7.008;2023-09-30T01:18:05;13.50;99.90
27534;DHT22;14973;51.460;7.008;2023-09-30T01:20:30;13.50;99.90
27534;DHT22;14973;51.460;7.008;2023-09-30T01:22:57;13.50;99.90
27534;DHT22;14973;51.460;7.008;2023-09-30T01:25:23;13.50;99.90
27534;DHT22;14973;51.460;7.008;2023-09-30T01:27:49;13.50;99.90
27534;DHT22;14973;51.460;7.008;2023-09-30T01:30:16;13.50;99.90
27534;DHT22;14973;51.460;7.008;2023-09-30T01:32:43;13.50;99.90
27534;DHT22;14973;51.460;7.008;2023-09-30T01:35:09;13.50;99.90
27534;DHT22;14973;51.460;7.008;2023-09-30T01:37:35;13.50;99.90
27534;DHT22;14973;51.460;7.008;2023-09-30T01:40:02;13.50;99.90
27534;DHT22;14973;51.460;7.008;2023-09-30T01:42:29;13.50;99.90
27534;DHT22;14973;51.460;7.008;2023-09-30T01:44:54;13.40;99.90
27534;DHT22;14973;51.460;7.008;2023-09-30T01:47:22;13.40;99.90
27534;DHT22;14973;51.460;7.008;2023-09-30T01:49:47;13.40;99.90
27534;DHT22;14973;51.460;7.008;2023-09-30T01:52:13;13.30;99.90
27534;DHT22;14973;51.460;7.008;2023-09-30T01:54:38;13.40;99.90
27534;DHT22;14973;51.460;7.008;2023-09-30T01:57:04;13.40;99.90
27534;DHT22;14973;51.460;7.008;2023-09-30T01:59:29;13.30;99.90
27534;DHT22;14973;51.460;7.008;2023-09-30T02:01:55;13.30;99.90
27534;DHT22;14973;51.460;7.008;2023-09-30T02:04:21;13.30;99.90
27534;DHT22;14973;51.460;7.008;2023-09-30T02:06:47;13.30;99.90
27534;DHT22;14973;51.460;7.008;2023-09-30T02:09:12;13.30;99.90
27534;DHT22;14973;51.460;7.008;2023-09-30T02:11:38;13.30;99.90
27534;DHT22;14973;51.460;7.008;2023-09-30T02:14:06;13.30;99.90
27534;DHT22;14973;51.460;7.008;2023-09-30T02:16:32;13.20;99.90
27534;DHT22;14973;51.460;7.008;2023-09-30T02:18:58;13.20;99.90
27534;DHT22;14973;51.460;7.008;2023-09-30T02:21:23;13.30;99.90
27534;DHT22;14973;51.460;7.008;2023-09-30T02:23:49;13.30;99.90
27534;DHT22;14973;51.460;7.008;2023-09-30T02:26:15;13.30;99.90
27534;DHT22;14973;51.460;7.008;2023-09-30T02:28:40;13.20;99.90
27534;DHT22;14973;51.460;7.008;2023-09-30T02:31:06;13.20;99.90
27534;DHT22;14973;51.460;7.008;2023-09-30T02:33:33;13.10;99.90
27534;DHT22;14973;51.460;7.008;2023-09-30T02:36:01;13.10;99.90
27534;DHT22;14973;51.460;7.008;2023-09-30T02:38:27;13.20;99.90
27534;DHT22;14973;51.460;7.008;2023-09-30T02:40:54;13.10;99.90
27534;DHT22;14973;51.460;7.008;2023-09-30T02:43:20;13.10;99.90
27534;DHT22;14973;51.460;7.008;2023-09-30T02:45:46;13.10;99.90
27534;DHT22;14973;51.460;7.008;2023-09-30T02:48:11;13.00;99.90
27534;DHT22;14973;51.460;7.008;2023-09-30T02:50:37;13.00;99.90
27534;DHT22;14973;51.460;7.008;2023-09-30T02:53:04;12.90;99.90
27534;DHT22;14973;51.460;7.008;2023-09-30T02:55:30;13.00;99.90
27534;DHT22;14973;51.460;7.008;2023-09-30T02:57:56;12.90;99.90
27534;DHT22;14973;51.460;7.008;2023-09-30T03:00:23;12.90;99.90
27534;DHT22;14973;51.460;7.008;2023-09-30T03:02:50;12.80;99.90
27534;DHT22;14973;51.460;7.008;2023-09-30T03:05:17;12.90;99.90
27534;DHT22;14973;51.460;7.008;2023-09-30T03:07:42;12.80;99.90
27534;DHT22;14973;51.460;7.008;2023-09-30T03:10:08;12.80;99.90
27534;DHT22;14973;51.460;7.008;2023-09-30T03:12:35;12.90;99.90
27534;DHT22;14973;51.460;7.008;2023-09-30T03:15:00;12.90;99.90
27534;DHT22;14973;51.460;7.008;2023-09-30T03:17:30;12.90;99.90
27534;DHT22;14973;51.460;7.008;2023-09-30T03:20:00;12.80;99.90
27534;DHT22;14973;51.460;7.008;2023-09-30T03:22:26;12.80;99.90
27534;DHT22;14973;51.460;7.008;2023-09-30T03:24:52;12.80;99.90
27534;DHT22;14973;51.460;7.008;2023-09-30T03:27:19;12.80;99.90
27534;DHT22;14973;51.460;7.008;2023-09-30T03:29:45;12.80;99.90
27534;DHT22;14973;51.460;7.008;2023-09-30T03:32:11;12.70;99.90
27534;DHT22;14973;51.460;7.008;2023-09-30T03:34:37;12.70;99.90
27534;DHT22;14973;51.460;7.008;2023-09-30T03:37:02;12.70;99.90
27534;DHT22;14973;51.460;7.008;2023-09-30T03:39:29;12.70;99.90
27534;DHT22;14973;51.460;7.008;2023-09-30T03:41:55;12.80;99.90
27534;DHT22;14973;51.460;7.008;2023-09-30T03:44:22;12.70;99.90
27534;DHT22;14973;51.460;7.008;2023-09-30T03:46:48;12.80;99.90
27534;DHT22;14973;51.460;7.008;2023-09-30T03:49:15;12.80;99.90
27534;DHT22;14973;51.460;7.008;2023-09-30T03:51:41;12.80;99.90
27534;DHT22;14973;51.460;7.008;2023-09-30T03:54:07;12.80;99.90
27534;DHT22;14973;51.460;7.008;2023-09-30T03:56:34;12.80;99.90
27534;DHT22;14973;51.460;7.008;2023-09-30T03:58:59;12.90;99.90
27534;DHT22;14973;51.460;7.008;2023-09-30T04:01:25;12.90;99.90
27534;DHT22;14973;51.460;7.008;2023-09-30T04:03:52;12.80;99.90
27534;DHT22;14973;51.460;7.008;2023-09-30T04:06:20;12.80;99.90
27534;DHT22;14973;51.460;7.008;2023-09-30T04:08:46;12.80;99.90
27534;DHT22;14973;51.460;7.008;2023-09-30T04:11:12;12.80;99.90
27534;DHT22;14973;51.460;7.008;2023-09-30T04:13:44;12.70;99.90
27534;DHT22;14973;51.460;7.008;2023-09-30T04:16:10;12.70;99.90
27534;DHT22;14973;51.460;7.008;2023-09-30T04:18:35;12.60;99.90
27534;DHT22;14973;51.460;7.008;2023-09-30T04:21:01;12.50;99.90
27534;DHT22;14973;51.460;7.008;2023-09-30T04:23:29;12.50;99.90
27534;DHT22;14973;51.460;7.008;2023-09-30T04:25:55;12.60;99.90
27534;DHT22;14973;51.460;7.008;2023-09-30T04:28:21;12.60;99.90
27534;DHT22;14973;51.460;7.008;2023-09-30T04:30:47;12.60;99.90
27534;DHT22;14973;51.460;7.008;2023-09-30T04:33:16;12.60;99.90
27534;DHT22;14973;51.460;7.008;2023-09-30T04:35:45;12.70;99.90
27534;DHT22;14973;51.460;7.008;2023-09-30T04:38:11;12.70;99.90
27534;DHT22;14973;51.460;7.008;2023-09-30T04:40:36;12.70;99.90
27534;DHT22;14973;51.460;7.008;2023-09-30T04:43:03;12.70;99.90
27534;DHT22;14973;51.460;7.008;2023-09-30T04:45:28;12.70;99.90
27534;DHT22;14973;51.460;7.008;2023-09-30T04:47:54;12.70;99.90
27534;DHT22;14973;51.460;7.008;2023-09-30T04:50:23;12.60;99.90
27534;DHT22;14973;51.460;7.008;2023-09-30T04:52:50;12.60;99.90
27534;DHT22;14973;51.460;7.008;2023-09-30T04:55:17;12.60;99.90
27534;DHT22;14973;51.460;7.008;2023-09-30T04:57:45;12.60;99.90
27534;DHT22;14973;51.460;7.008;2023-09-30T05:00:14;12.50;99.90
27534;DHT22;14973;51.460;7.008;2023-09-30T05:02:40;12.50;99.90
27534;DHT22;14973;51.460;7.008;2023-09-30T05:05:06;12.50;99.90
27534;DHT22;14973;51.460;7.008;2023-09-30T05:07:35;12.50;99.90
27534;DHT22;14973;51.460;7.008;2023-09-30T05:10:00;12.50;99.90
27534;DHT22;14973;51.460;7.008;2023-09-30T05:12:28;12.50;99.90
27534;DHT22;14973;51.460;7.008;2023-09-30T05:14:53;12.50;99.90
27534;DHT22;14973;51.460;7.008;2023-09-30T05:17:20;12.50;99.90
27534;DHT22;14973;51.460;7.008;2023-09-30T05:19:47;12.50;99.90
27534;DHT22;14973;51.460;7.008;2023-09-30T05:22:12;12.50;99.90
27534;DHT22;14973;51.460;7.008;2023-09-30T05:24:38;12.60;99.90
27534;DHT22;14973;51.460;7.008;2023-09-30T05:27:03;12.50;99.90
27534;DHT22;14973;51.460;7.008;2023-09-30T05:29:29;12.50;99.90
27534;DHT22;14973;51.460;7.008;2023-09-30T05:31:55;12.50;99.90
27534;DHT22;14973;51.460;7.008;2023-09-30T05:34:21;12.50;99.90
27534;DHT22;14973;51.460;7.008;2023-09-30T05:36:47;12.60;99.90
27534;DHT22;14973;51.460;7.008;2023-09-30T05:39:12;12.50;99.90
27534;DHT22;14973;51.460;7.008;2023-09-30T05:41:38;12.50;99.90
27534;DHT22;14973;51.460;7.008;2023-09-30T05:44:04;12.50;99.90
27534;DHT22;14973;51.460;7.008;2023-09-30T05:46:32;12.50;99.90
27534;DHT22;14973;51.460;7.008;2023-09-30T05:48:58;12.60;99.90
27534;DHT22;14973;51.460;7.008;2023-09-30T05:51:23;12.60;99.90
27534;DHT22;14973;51.460;7.008;2023-09-30T05:53:49;12.60;99.90
27534;DHT22;14973;51.460;7.008;2023-09-30T05:56:15;12.70;99.90
27534;DHT22;14973;51.460;7.008;2023-09-30T05:58:42;12.70;99.90
27534;DHT22;14973;51.460;7.008;2023-09-30T06:01:08;12.80;99.90
27534;DHT22;14973;51.460;7.008;2023-09-30T06:03:38;12.80;99.90
27534;DHT22;14973;51.460;7.008;2023-09-30T06:06:13;12.90;99.90
27534;DHT22;14973;51.460;7.008;2023-09-30T06:08:40;13.00;99.90
27534;DHT22;14973;51.460;7.008;2023-09-30T06:11:05;13.10;99.90
27534;DHT22;14973;51.460;7.008;2023-09-30T06:13:35;13.20;99.90
27534;DHT22;14973;51.460;7.008;2023-09-30T06:16:01;13.20;99.90
27534;DHT22;14973;51.460;7.008;2023-09-30T06:18:28;13.30;99.90
27534;DHT22;14973;51.460;7.008;2023-09-30T06:20:53;13.40;99.90
27534;DHT22;14973;51.460;7.008;2023-09-30T06:23:19;13.50;99.90
27534;DHT22;14973;51.460;7.008;2023-09-30T06:25:44;13.60;99.90
27534;DHT22;14973;51.460;7.008;2023-09-30T06:28:10;13.70;99.90
27534;DHT22;14973;51.460;7.008;2023-09-30T06:30:35;13.80;99.90
27534;DHT22;14973;51.460;7.008;2023-09-30T06:33:02;13.80;99.90
27534;DHT22;14973;51.460;7.008;2023-09-30T06:35:30;13.90;99.90
27534;DHT22;14973;51.460;7.008;2023-09-30T06:37:58;14.00;99.90
27534;DHT22;14973;51.460;7.008;2023-09-30T06:40:24;14.10;99.90
27534;DHT22;14973;51.460;7.008;2023-09-30T06:42:50;14.20;99.90
27534;DHT22;14973;51.460;7.008;2023-09-30T06:45:15;14.30;99.90
27534;DHT22;14973;51.460;7.008;2023-09-30T06:47:41;14.40;99.90
27534;DHT22;14973;51.460;7.008;2023-09-30T06:50:11;14.60;99.90
27534;DHT22;14973;51.460;7.008;2023-09-30T06:52:41;14.70;99.90
27534;DHT22;14973;51.460;7.008;2023-09-30T06:55:08;14.80;99.90
27534;DHT22;14973;51.460;7.008;2023-09-30T06:57:35;15.00;99.90
27534;DHT22;14973;51.460;7.008;2023-09-30T07:00:12;15.10;99.90
27534;DHT22;14973;51.460;7.008;2023-09-30T07:02:38;15.20;99.90
27534;DHT22;14973;51.460;7.008;2023-09-30T07:05:09;15.20;99.90
27534;DHT22;14973;51.460;7.008;2023-09-30T07:07:35;15.30;99.90
27534;DHT22;14973;51.460;7.008;2023-09-30T07:10:00;15.40;99.90
27534;DHT22;14973;51.460;7.008;2023-09-30T07:12:26;15.50;99.90
27534;DHT22;14973;51.460;7.008;2023-09-30T07:14:53;15.50;99.90
27534;DHT22;14973;51.460;7.008;2023-09-30T07:17:18;15.60;99.90
27534;DHT22;14973;51.460;7.008;2023-09-30T07:19:44;15.80;99.90
27534;DHT22;14973;51.460;7.008;2023-09-30T07:22:09;15.80;99.90
27534;DHT22;14973;51.460;7.008;2023-09-30T07:24:35;16.00;99.90
27534;DHT22;14973;51.460;7.008;2023-09-30T07:27:00;16.10;99.90
27534;DHT22;14973;51.460;7.008;2023-09-30T07:29:26;16.20;99.90
27534;DHT22;14973;51.460;7.008;2023-09-30T07:31:51;16.40;99.90
27534;DHT22;14973;51.460;7.008;2023-09-30T07:34:17;16.50;95.10
27534;DHT22;14973;51.460;7.008;2023-09-30T07:36:42;16.70;91.50
27534;DHT22;14973;51.460;7.008;2023-09-30T07:39:08;16.90;85.50
27534;DHT22;14973;51.460;7.008;2023-09-30T07:41:37;16.90;75.80
27534;DHT22;14973;51.460;7.008;2023-09-30T07:44:02;16.90;85.80
27534;DHT22;14973;51.460;7.008;2023-09-30T07:46:28;17.40;77.40
27534;DHT22;14973;51.460;7.008;2023-09-30T07:48:54;18.00;44.80
27534;DHT22;14973;51.460;7.008;2023-09-30T07:51:20;19.60;1.00
27534;DHT22;14973;51.460;7.008;2023-09-30T07:53:46;21.00;1.00
27534;DHT22;14973;51.460;7.008;2023-09-30T07:56:13;21.90;99.90
27534;DHT22;14973;51.460;7.008;2023-09-30T07:58:39;23.30;16.60
27534;DHT22;14973;51.460;7.008;2023-09-30T08:01:04;24.20;1.00
27534;DHT22;14973;51.460;7.008;2023-09-30T08:03:30;24.90;1.00
27534;DHT22;14973;51.460;7.008;2023-09-30T08:05:56;25.70;1.00
27534;DHT22;14973;51.460;7.008;2023-09-30T08:08:23;26.00;1.00
27534;DHT22;14973;51.460;7.008;2023-09-30T08:10:50;26.30;1.00
27534;DHT22;14973;51.460;7.008;2023-09-30T08:13:15;26.20;1.00
27534;DHT22;14973;51.460;7.008;2023-09-30T08:15:42;27.10;1.00
27534;DHT22;14973;51.460;7.008;2023-09-30T08:18:08;27.60;99.90
27534;DHT22;14973;51.460;7.008;2023-09-30T08:20:34;27.30;99.90
27534;DHT22;14973;51.460;7.008;2023-09-30T08:22:59;27.90;99.90
27534;DHT22;14973;51.460;7.008;2023-09-30T08:25:25;28.40;99.90
27534;DHT22;14973;51.460;7.008;2023-09-30T08:27:51;28.20;99.90
27534;DHT22;14973;51.460;7.008;2023-09-30T08:30:17;28.30;99.90
27534;DHT22;14973;51.460;7.008;2023-09-30T08:32:43;28.60;99.90
27534;DHT22;14973;51.460;7.008;2023-09-30T08:35:09;29.30;99.90
27534;DHT22;14973;51.460;7.008;2023-09-30T08:37:35;29.70;99.90
27534;DHT22;14973;51.460;7.008;2023-09-30T08:40:00;29.40;99.90
27534;DHT22;14973;51.460;7.008;2023-09-30T08:42:27;29.60;99.90
27534;DHT22;14973;51.460;7.008;2023-09-30T08:44:58;29.60;99.90
27534;DHT22;14973;51.460;7.008;2023-09-30T08:47:26;29.50;99.90
27534;DHT22;14973;51.460;7.008;2023-09-30T08:49:59;29.70;99.90
27534;DHT22;14973;51.460;7.008;2023-09-30T08:52:32;28.80;99.90
27534;DHT22;14973;51.460;7.008;2023-09-30T08:54:58;28.50;99.90
27534;DHT22;14973;51.460;7.008;2023-09-30T08:57:24;28.80;99.90
27534;DHT22;14973;51.460;7.008;2023-09-30T08:59:50;29.10;99.90
27534;DHT22;14973;51.460;7.008;2023-09-30T09:02:18;28.60;99.90
27534;DHT22;14973;51.460;7.008;2023-09-30T09:04:47;28.30;99.90
27534;DHT22;14973;51.460;7.008;2023-09-30T09:07:14;27.70;99.90
27534;DHT22;14973;51.460;7.008;2023-09-30T09:09:40;27.20;99.90
27534;DHT22;14973;51.460;7.008;2023-09-30T09:12:06;27.30;99.90
27534;DHT22;14973;51.460;7.008;2023-09-30T09:14:43;28.00;99.90
27534;DHT22;14973;51.460;7.008;2023-09-30T09:17:11;28.40;99.90
27534;DHT22;14973;51.460;7.008;2023-09-30T09:19:37;27.80;99.90
27534;DHT22;14973;51.460;7.008;2023-09-30T09:22:03;26.70;99.90
27534;DHT22;14973;51.460;7.008;2023-09-30T09:24:32;25.70;99.90
27534;DHT22;14973;51.460;7.008;2023-09-30T09:27:12;25.10;99.90
27534;DHT22;14973;51.460;7.008;2023-09-30T09:29:38;24.70;99.90
27534;DHT22;14973;51.460;7.008;2023-09-30T09:32:12;24.40;99.90
27534;DHT22;14973;51.460;7.008;2023-09-30T09:34:39;23.80;99.90
27534;DHT22;14973;51.460;7.008;2023-09-30T09:39:48;22.50;99.90
27534;DHT22;14973;51.460;7.008;2023-09-30T09:42:28;21.90;1.00
27534;DHT22;14973;51.460;7.008;2023-09-30T09:45:02;21.80;1.00
27534;DHT22;14973;51.460;7.008;2023-09-30T09:47:32;21.90;1.00
27534;DHT22;14973;51.460;7.008;2023-09-30T09:49:58;21.90;1.00
27534;DHT22;14973;51.460;7.008;2023-09-30T09:52:25;21.70;1.00
27534;DHT22;14973;51.460;7.008;2023-09-30T09:54:51;21.50;1.00
27534;DHT22;14973;51.460;7.008;2023-09-30T09:57:18;21.50;1.00
27534;DHT22;14973;51.460;7.008;2023-09-30T09:59:46;21.60;1.00
27534;DHT22;14973;51.460;7.008;2023-09-30T10:02:16;21.60;1.00
27534;DHT22;14973;51.460;7.008;2023-09-30T10:04:44;21.40;1.00
27534;DHT22;14973;51.460;7.008;2023-09-30T10:07:27;21.40;1.00
27534;DHT22;14973;51.460;7.008;2023-09-30T10:09:53;21.70;1.00
27534;DHT22;14973;51.460;7.008;2023-09-30T10:12:22;21.90;1.00
27534;DHT22;14973;51.460;7.008;2023-09-30T10:14:48;22.00;1.00
27534;DHT22;14973;51.460;7.008;2023-09-30T10:17:14;21.80;1.00
27534;DHT22;14973;51.460;7.008;2023-09-30T10:20:05;21.90;1.00
27534;DHT22;14973;51.460;7.008;2023-09-30T10:22:34;22.10;1.00
27534;DHT22;14973;51.460;7.008;2023-09-30T10:25:01;22.10;1.00
27534;DHT22;14973;51.460;7.008;2023-09-30T10:35:19;22.30;1.00
27534;DHT22;14973;51.460;7.008;2023-09-30T10:37:45;22.20;99.90
27534;DHT22;14973;51.460;7.008;2023-09-30T10:40:27;22.10;1.00
27534;DHT22;14973;51.460;7.008;2023-09-30T10:42:52;22.10;99.90
27534;DHT22;14973;51.460;7.008;2023-09-30T10:50:52;22.10;1.00
27534;DHT22;14973;51.460;7.008;2023-09-30T10:53:19;22.20;1.00
27534;DHT22;14973;51.460;7.008;2023-09-30T10:55:45;22.30;99.90
27534;DHT22;14973;51.460;7.008;2023-09-30T10:58:14;22.40;99.90
27534;DHT22;14973;51.460;7.008;2023-09-30T11:00:52;22.80;99.90
27534;DHT22;14973;51.460;7.008;2023-09-30T11:03:20;22.70;99.90
27534;DHT22;14973;51.460;7.008;2023-09-30T11:05:48;22.80;99.90
27534;DHT22;14973;51.460;7.008;2023-09-30T11:08:15;22.80;99.90
27534;DHT22;14973;51.460;7.008;2023-09-30T11:10:49;22.70;99.90
27534;DHT22;14973;51.460;7.008;2023-09-30T11:13:16;22.50;99.90
27534;DHT22;14973;51.460;7.008;2023-09-30T11:15:44;22.50;99.90
27534;DHT22;14973;51.460;7.008;2023-09-30T11:18:18;22.30;99.90
27534;DHT22;14973;51.460;7.008;2023-09-30T11:20:44;22.30;99.90
27534;DHT22;14973;51.460;7.008;2023-09-30T11:23:11;22.20;99.90
27534;DHT22;14973;51.460;7.008;2023-09-30T11:25:38;22.30;99.90
27534;DHT22;14973;51.460;7.008;2023-09-30T11:28:15;22.30;99.90
27534;DHT22;14973;51.460;7.008;2023-09-30T11:31:00;22.20;99.90
27534;DHT22;14973;51.460;7.008;2023-09-30T11:33:27;22.20;99.90
27534;DHT22;14973;51.460;7.008;2023-09-30T11:36:04;22.30;99.90
27534;DHT22;14973;51.460;7.008;2023-09-30T11:38:32;22.30;99.90
27534;DHT22;14973;51.460;7.008;2023-09-30T11:41:04;22.30;99.90
27534;DHT22;14973;51.460;7.008;2023-09-30T11:43:35;22.30;99.90
27534;DHT22;14973;51.460;7.008;2023-09-30T11:46:08;22.60;99.90
27534;DHT22;14973;51.460;7.008;2023-09-30T11:48:57;22.70;99.90
27534;DHT22;14973;51.460;7.008;2023-09-30T11:51:25;22.90;99.90
27534;DHT22;14973;51.460;7.008;2023-09-30T11:53:52;22.90;99.90
27534;DHT22;14973;51.460;7.008;2023-09-30T11:56:19;23.00;99.90
27534;DHT22;14973;51.460;7.008;2023-09-30T11:58:45;23.10;99.90
27534;DHT22;14973;51.460;7.008;2023-09-30T12:01:11;23.00;99.90
27534;DHT22;14973;51.460;7.008;2023-09-30T12:03:39;22.80;99.90
27534;DHT22;14973;51.460;7.008;2023-09-30T12:06:06;22.70;99.90
27534;DHT22;14973;51.460;7.008;2023-09-30T12:08:31;22.90;99.90
27534;DHT22;14973;51.460;7.008;2023-09-30T12:10:57;22.90;99.90
27534;DHT22;14973;51.460;7.008;2023-09-30T12:13:25;22.80;99.90
27534;DHT22;14973;51.460;7.008;2023-09-30T12:15:51;22.80;99.90
27534;DHT22;14973;51.460;7.008;2023-09-30T12:18:18;22.70;99.90
27534;DHT22;14973;51.460;7.008;2023-09-30T12:20:49;22.70;99.90
27534;DHT22;14973;51.460;7.008;2023-09-30T12:23:15;22.70;99.90
27534;DHT22;14973;51.460;7.008;2023-09-30T12:25:40;22.50;99.90
27534;DHT22;14973;51.460;7.008;2023-09-30T12:28:06;22.50;99.90
27534;DHT22;14973;51.460;7.008;2023-09-30T12:30:31;22.60;99.90
27534;DHT22;14973;51.460;7.008;2023-09-30T12:32:57;22.80;99.90
27534;DHT22;14973;51.460;7.008;2023-09-30T12:35:23;22.80;99.90
27534;DHT22;14973;51.460;7.008;2023-09-30T12:37:49;22.80;99.90
27534;DHT22;14973;51.460;7.008;2023-09-30T12:40:14;22.60;99.90
27534;DHT22;14973;51.460;7.008;2023-09-30T12:42:43;22.80;99.90
27534;DHT22;14973;51.460;7.008;2023-09-30T12:45:09;22.70;99.90
27534;DHT22;14973;51.460;7.008;2023-09-30T12:47:34;22.60;99.90
27534;DHT22;14973;51.460;7.008;2023-09-30T12:50:00;22.60;99.90
27534;DHT22;14973;51.460;7.008;2023-09-30T12:52:25;22.80;99.90
27534;DHT22;14973;51.460;7.008;2023-09-30T12:54:51;22.90;99.90
27534;DHT22;14973;51.460;7.008;2023-09-30T12:57:16;22.80;99.90
27534;DHT22;14973;51.460;7.008;2023-09-30T12:59:46;22.50;99.90
27534;DHT22;14973;51.460;7.008;2023-09-30T13:02:14;22.50;99.90
27534;DHT22;14973;51.460;7.008;2023-09-30T13:04:39;22.40;99.90
27534;DHT22;14973;51.460;7.008;2023-09-30T13:07:09;22.40;99.90
27534;DHT22;14973;51.460;7.008;2023-09-30T13:09:35;22.50;99.90
27534;DHT22;14973;51.460;7.008;2023-09-30T13:12:02;22.50;99.90
27534;DHT22;14973;51.460;7.008;2023-09-30T13:14:28;22.60;99.90
27534;DHT22;14973;51.460;7.008;2023-09-30T13:16:54;22.40;99.90
27534;DHT22;14973;51.460;7.008;2023-09-30T13:19:20;22.00;99.90
27534;DHT22;14973;51.460;7.008;2023-09-30T13:21:52;21.80;99.90
27534;DHT22;14973;51.460;7.008;2023-09-30T13:24:21;21.60;99.90
27534;DHT22;14973;51.460;7.008;2023-09-30T13:26:46;21.50;99.90
27534;DHT22;14973;51.460;7.008;2023-09-30T13:29:12;21.60;99.90
27534;DHT22;14973;51.460;7.008;2023-09-30T13:31:39;21.50;99.90
27534;DHT22;14973;51.460;7.008;2023-09-30T13:34:05;21.50;99.90
27534;DHT22;14973;51.460;7.008;2023-09-30T13:36:31;21.50;99.90
27534;DHT22;14973;51.460;7.008;2023-09-30T13:38:56;21.40;99.90
27534;DHT22;14973;51.460;7.008;2023-09-30T13:41:22;21.30;99.90
27534;DHT22;14973;51.460;7.008;2023-09-30T13:43:48;21.40;99.90
27534;DHT22;14973;51.460;7.008;2023-09-30T13:46:13;21.50;99.90
27534;DHT22;14973;51.460;7.008;2023-09-30T13:48:39;21.50;99.90
27534;DHT22;14973;51.460;7.008;2023-09-30T13:51:13;21.40;99.90
27534;DHT22;14973;51.460;7.008;2023-09-30T13:53:39;21.40;99.90
27534;DHT22;14973;51.460;7.008;2023-09-30T13:56:06;21.50;99.90
27534;DHT22;14973;51.460;7.008;2023-09-30T13:58:32;21.50;99.90
27534;DHT22;14973;51.460;7.008;2023-09-30T14:00:58;21.70;99.90
27534;DHT22;14973;51.460;7.008;2023-09-30T14:03:23;21.50;99.90
27534;DHT22;14973;51.460;7.008;2023-09-30T14:05:52;21.50;99.90
27534;DHT22;14973;51.460;7.008;2023-09-30T14:08:18;21.30;99.90
27534;DHT22;14973;51.460;7.008;2023-09-30T14:10:44;21.10;99.90
27534;DHT22;14973;51.460;7.008;2023-09-30T14:13:10;21.30;99.90
27534;DHT22;14973;51.460;7.008;2023-09-30T14:15:36;20.90;99.90
27534;DHT22;14973;51.460;7.008;2023-09-30T14:18:05;20.70;99.90
27534;DHT22;14973;51.460;7.008;2023-09-30T14:20:31;20.60;99.90
27534;DHT22;14973;51.460;7.008;2023-09-30T14:22:58;20.50;99.90
27534;DHT22;14973;51.460;7.008;2023-09-30T14:25:24;20.50;99.90
27534;DHT22;14973;51.460;7.008;2023-09-30T14:27:49;20.30;99.90
27534;DHT22;14973;51.460;7.008;2023-09-30T14:30:15;20.40;99.90
27534;DHT22;14973;51.460;7.008;2023-09-30T14:32:42;20.30;1.00
27534;DHT22;14973;51.460;7.008;2023-09-30T14:35:08;20.30;1.00
27534;DHT22;14973;51.460;7.008;2023-09-30T14:37:35;20.30;1.00
27534;DHT22;14973;51.460;7.008;2023-09-30T14:40:00;20.40;1.00
27534;DHT22;14973;51.460;7.008;2023-09-30T14:42:26;20.30;1.00
27534;DHT22;14973;51.460;7.008;2023-09-30T14:44:51;20.30;1.00
27534;DHT22;14973;51.460;7.008;2023-09-30T14:47:17;20.10;1.00
27534;DHT22;14973;51.460;7.008;2023-09-30T14:49:43;20.10;1.00
27534;DHT22;14973;51.460;7.008;2023-09-30T14:52:09;20.20;1.00
27534;DHT22;14973;51.460;7.008;2023-09-30T14:54:35;20.20;1.00
27534;DHT22;14973;51.460;7.008;2023-09-30T14:57:00;20.10;1.00
27534;DHT22;14973;51.460;7.008;2023-09-30T14:59:26;20.00;1.00
27534;DHT22;14973;51.460;7.008;2023-09-30T15:01:52;19.90;1.00
27534;DHT22;14973;51.460;7.008;2023-09-30T15:04:18;19.90;1.00
27534;DHT22;14973;51.460;7.008;2023-09-30T15:06:44;19.70;1.00
27534;DHT22;14973;51.460;7.008;2023-09-30T15:09:11;19.70;1.00
27534;DHT22;14973;51.460;7.008;2023-09-30T15:11:37;19.70;1.00
27534;DHT22;14973;51.460;7.008;2023-09-30T15:14:03;19.70;1.00
27534;DHT22;14973;51.460;7.008;2023-09-30T15:16:30;19.80;1.00
27534;DHT22;14973;51.460;7.008;2023-09-30T15:18:56;19.70;1.00
27534;DHT22;14973;51.460;7.008;2023-09-30T15:21:22;19.70;1.00
27534;DHT22;14973;51.460;7.008;2023-09-30T15:23:47;19.70;1.00
27534;DHT22;14973;51.460;7.008;2023-09-30T15:26:13;19.70;1.00
27534;DHT22;14973;51.460;7.008;2023-09-30T15:28:39;19.60;1.00
27534;DHT22;14973;51.460;7.008;2023-09-30T15:31:04;19.60;1.00
27534;DHT22;14973;51.460;7.008;2023-09-30T15:33:30;19.50;1.00
27534;DHT22;14973;51.460;7.008;2023-09-30T15:35:56;19.50;1.00
27534;DHT22;14973;51.460;7.008;2023-09-30T15:38:21;19.40;1.00
27534;DHT22;14973;51.460;7.008;2023-09-30T15:40:55;19.30;1.00
27534;DHT22;14973;51.460;7.008;2023-09-30T15:43:23;19.30;1.00
27534;DHT22;14973;51.460;7.008;2023-09-30T15:45:50;19.20;9.10